Atlanta, GA (30314)

6:21 PM EST on March 05, 2015 (GMT -0500)
Georgia Tech (Midtown) | Change Station
CLOSE
Current Station
Personal Weather Station
Location: Atlanta, GA
Elevation: 935 ft
Nearby Weather Stations
Active Advisory: Special Statement

Elev 935 ft 33.78 °N, 84.40 °W | Updated 4 seconds ago

Overcast
Overcast
33.8 °F
Feels Like 25 °F
N
12.0
Wind Variable Wind from NW
Gusts 28.0 mph

Today
High -- | Low -- °F
--% Chance of Precip.
Yesterday
High -- | Low -- °F
Precip. -- in
7:01 AM 6:37 PM
Full, 100% visible
Pressure 30.19 in
Visibility 10.0 miles
Clouds Overcast 1100 ft
Windchill 25 °F
Dew Point 29 °F
Humidity 81%
Rainfall in
Snow Depth Not available.
UV 0 out of 12
Pollen 3.20 out of 12
Air Quality Not available.
Flu Activity Not available.
METAR KFTY 052253Z 33008G18KT 10SM UP OVC011 01/M01 A3019 RMK AO2 UPB2155E2157B31RAB2157E39 CIG 009V013 SLP224 P0001 T00111011

More Conditions Fewer Conditions

Pressure 30.19 in
Visibility 10.0 miles
Clouds Overcast 1100 ft
Windchill 25 °F
Dew Point 29 °F
Humidity 81%
Rainfall in
Snow Depth Not available.
UV 0 out of 12
Pollen 3.20 out of 12
Air Quality Not available.
Flu Activity Not available.
METAR KFTY 052253Z 33008G18KT 10SM UP OVC011 01/M01 A3019 RMK AO2 UPB2155E2157B31RAB2157E39 CIG 009V013 SLP224 P0001 T00111011

More Conditions Fewer Conditions

10-Day Weather Forecast

Almanac

Astronomy

Mar. 05, 2015 Rise Set
Actual Time
Civil Twilight
Nautical Twilight
Astronomical Twilight
Moon
Length of Visible Light
Length of Day
Tomorrow will be .
, % of the Moon is Illuminated

Today's Extremes

State Highs State Lows

Community

WunderPhotos

Upload Photos

1,803,053 photos uploaded!

WunderBlogs® & News

Nearby

Air Quality

  Air Quality AQ Index Pollutant
Not available.

Snow Depth

Station Depth Elevation

Earthquake Activity

City Distance Mag. Time & Date
Minimum magnitude displayed is 2.5.

Coastal Water Temperatures

Place Temperature

Nearby Weather Stations

Special Statement
Statement as of 2:56 PM EST on March 05, 2015

... Patchy black ice likely across north and much of central
Georgia tonight...

As a very cold air mass continues to spread in over the state
this evening and overnight... temperatures will fall at or below
freezing for most areas. This coupled with wet grounds from
widespread rains will result in patches of black ice... resulting
in slick spots on area roads and bridges. The main black ice
threat tonight will be generally along and north of a Columbus to
Macon to Warrenton line... and through Friday morning.

People traveling across north and much of central Georgia
tonight and Friday morning should use extra caution and be
prepared for slick spots on roads.